Time;durP1;ratioP1;P1;durP2;ratioP2;P2;SDS_P1;SDS_P2;PMS_P1;PMS_P2;Temp;Humidity;BMP_temperature;BMP_pressure;BME280_temperature;BME280_humidity;BME280_pressure;Samples;Min_cycle;Max_cycle;Signal;HPM_P1;HPM_P2
2024/03/04 00:00:11;;;;;;;31.48;16.02;;;;;;;3.12;100.00;99737.34;5048761;28;20402;-58
2024/03/04 00:02:39;;;;;;;31.27;17.58;;;;;;;3.11;100.00;99732.97;5044494;28;20130;-56
2024/03/04 00:05:08;;;;;;;24.33;14.57;;;;;;;3.15;100.00;99741.38;5049593;28;20661;-59
2024/03/04 00:07:36;;;;;;;19.98;13.13;;;;;;;3.16;100.00;99737.47;5045342;28;20049;-59
2024/03/04 00:10:03;;;;;;;23.80;13.90;;;;;;;3.15;100.00;99735.91;5043299;28;20608;-57
2024/03/04 00:12:32;;;;;;;21.60;13.07;;;;;;;3.11;100.00;99734.91;5044466;28;20048;-57
2024/03/04 00:14:59;;;;;;;22.23;13.82;;;;;;;3.10;100.00;99734.09;5045106;28;20042;-56
2024/03/04 00:17:26;;;;;;;23.58;13.63;;;;;;;3.07;100.00;99740.22;5029356;28;20049;-57
2024/03/04 00:19:54;;;;;;;22.13;13.07;;;;;;;3.10;100.00;99739.56;5045455;28;20406;-58
2024/03/04 00:22:21;;;;;;;25.38;14.45;;;;;;;3.07;100.00;99738.28;5047861;28;20504;-57
2024/03/04 00:24:49;;;;;;;22.40;13.52;;;;;;;3.04;100.00;99738.13;5042337;28;20042;-58
2024/03/04 00:27:16;;;;;;;21.10;12.93;;;;;;;3.00;100.00;99735.22;5047305;28;20411;-56
2024/03/04 00:29:44;;;;;;;20.80;12.75;;;;;;;2.99;100.00;99733.59;5043551;28;20052;-57
2024/03/04 00:32:11;;;;;;;23.33;13.43;;;;;;;2.93;100.00;99734.91;5028536;28;20064;-58
2024/03/04 00:34:39;;;;;;;20.50;12.85;;;;;;;2.86;100.00;99740.00;5040125;28;20519;-55
2024/03/04 00:37:06;;;;;;;26.13;12.18;;;;;;;2.87;100.00;99743.56;5050472;28;20057;-56
2024/03/04 00:39:33;;;;;;;19.55;11.82;;;;;;;2.85;100.00;99746.63;5047294;28;20084;-58
2024/03/04 00:42:01;;;;;;;17.88;10.93;;;;;;;2.80;100.00;99744.03;5042770;28;20055;-57
2024/03/04 00:44:29;;;;;;;17.02;9.93;;;;;;;2.80;100.00;99744.03;5045258;28;20797;-57
2024/03/04 00:46:56;;;;;;;17.85;10.57;;;;;;;2.81;100.00;99737.44;5050215;28;20053;-55
2024/03/04 00:49:24;;;;;;;18.00;10.75;;;;;;;2.81;100.00;99742.09;5057743;28;20055;-58
2024/03/04 00:51:51;;;;;;;13.80;9.60;;;;;;;2.77;100.00;99747.41;5040154;28;20059;-56
2024/03/04 00:54:18;;;;;;;21.23;9.43;;;;;;;2.75;100.00;99737.91;5047904;28;20060;-60
2024/03/04 00:56:46;;;;;;;18.25;9.95;;;;;;;2.75;100.00;99730.53;5029684;28;20048;-58
2024/03/04 00:59:13;;;;;;;17.90;9.48;;;;;;;2.73;100.00;99730.03;5048877;28;20056;-57
2024/03/04 01:01:40;;;;;;;15.88;9.18;;;;;;;2.70;100.00;99725.19;5023520;28;20403;-57
2024/03/04 01:04:08;;;;;;;15.38;7.93;;;;;;;2.71;100.00;99731.47;5032349;28;20045;-57
2024/03/04 01:06:38;;;;;;;16.45;8.52;;;;;;;2.72;100.00;99722.97;5041505;28;20515;-56
2024/03/04 01:09:05;;;;;;;16.15;9.70;;;;;;;2.73;100.00;99719.09;5035564;28;20049;-57
2024/03/04 01:11:32;;;;;;;15.60;9.27;;;;;;;2.74;100.00;99726.19;5041694;28;20053;-55
2024/03/04 01:14:00;;;;;;;15.98;9.18;;;;;;;2.75;100.00;99727.78;5040195;28;20052;-56
2024/03/04 01:16:28;;;;;;;16.35;9.27;;;;;;;2.77;100.00;99720.06;5035108;28;20052;-59
2024/03/04 01:18:56;;;;;;;17.98;8.45;;;;;;;2.81;100.00;99720.22;5041339;28;20045;-57
2024/03/04 01:21:24;;;;;;;12.45;8.18;;;;;;;2.83;100.00;99709.81;5029677;28;20049;-57
2024/03/04 01:23:52;;;;;;;12.98;7.88;;;;;;;2.84;100.00;99712.19;5044695;28;20041;-56
2024/03/04 01:26:19;;;;;;;12.65;8.02;;;;;;;2.82;100.00;99716.38;5038248;28;20064;-57
2024/03/04 01:28:47;;;;;;;10.38;7.35;;;;;;;2.82;100.00;99724.56;5038109;28;20060;-55
2024/03/04 01:31:18;;;;;;;12.95;7.65;;;;;;;2.81;100.00;99728.41;5040447;28;20137;-57
2024/03/04 01:33:49;;;;;;;11.60;7.25;;;;;;;2.84;100.00;99714.94;5042830;28;20049;-57
2024/03/04 01:36:18;;;;;;;11.25;7.43;;;;;;;2.84;100.00;99709.47;5041776;28;20159;-58
2024/03/04 01:38:45;;;;;;;12.77;6.38;;;;;;;2.85;100.00;99713.81;5038983;28;20052;-58
2024/03/04 01:41:12;;;;;;;12.63;7.75;;;;;;;2.85;100.00;99708.34;5040030;28;20053;-55
2024/03/04 01:43:40;;;;;;;10.75;6.97;;;;;;;2.86;100.00;99712.69;5046093;28;20048;-58
2024/03/04 01:46:08;;;;;;;17.60;6.60;;;;;;;2.87;100.00;99713.50;5040129;28;20049;-56
2024/03/04 01:48:37;;;;;;;11.07;6.65;;;;;;;2.86;100.00;99712.69;5043922;28;20052;-58
2024/03/04 01:51:05;;;;;;;10.15;6.45;;;;;;;2.85;100.00;99722.03;5046429;28;20454;-56
2024/03/04 01:53:32;;;;;;;12.15;8.25;;;;;;;2.86;100.00;99715.41;5045815;28;20055;-56
2024/03/04 01:56:05;;;;;;;11.65;5.88;;;;;;;2.86;100.00;99707.22;5058681;28;20441;-57
2024/03/04 01:58:36;;;;;;;9.07;5.43;;;;;;;2.87;100.00;99700.63;5030210;28;20041;-57
2024/03/04 02:01:07;;;;;;;17.67;6.03;;;;;;;2.87;100.00;99703.38;5045344;28;20521;-56
2024/03/04 02:03:37;;;;;;;8.48;4.93;;;;;;;2.89;100.00;99706.56;5044282;28;20903;-55
2024/03/04 02:06:05;;;;;;;12.13;5.45;;;;;;;2.91;100.00;99709.78;5043349;28;20041;-58
2024/03/04 02:08:34;;;;;;;9.30;5.03;;;;;;;2.91;100.00;99704.31;5045435;28;20056;-55
2024/03/04 02:11:03;;;;;;;8.52;5.95;;;;;;;2.93;100.00;99715.75;5047722;28;20041;-57
2024/03/04 02:13:32;;;;;;;9.25;5.22;;;;;;;2.92;100.00;99716.88;5048195;28;20533;-55
2024/03/04 02:16:00;;;;;;;7.85;4.78;;;;;;;2.91;100.00;99712.53;5043379;28;20044;-58
2024/03/04 02:18:27;;;;;;;8.20;5.53;;;;;;;2.92;100.00;99716.06;5040795;28;20049;-57
2024/03/04 02:21:02;;;;;;;7.88;4.63;;;;;;;2.89;100.00;99706.56;5044099;28;20060;-57
2024/03/04 02:23:29;;;;;;;6.78;4.60;;;;;;;2.88;100.00;99706.91;5041434;28;20507;-56
2024/03/04 02:25:57;;;;;;;10.82;5.18;;;;;;;2.83;100.00;99702.38;5041949;28;20045;-56
2024/03/04 02:28:27;;;;;;;11.40;5.07;;;;;;;2.79;100.00;99712.34;5039050;28;20049;-57
2024/03/04 02:30:59;;;;;;;11.23;5.45;;;;;;;2.76;100.00;99714.91;5037733;28;20037;-58
2024/03/04 02:33:28;;;;;;;;;;;;;;;2.73;100.00;99707.34;5046752;28;20053;-58
2024/03/04 02:35:56;;;;;;;10.82;4.53;;;;;;;2.72;100.00;99709.31;5037220;28;20316;-57
2024/03/04 02:38:23;;;;;;;10.57;4.53;;;;;;;2.68;100.00;99705.56;5040006;28;20045;-59
2024/03/04 02:40:51;;;;;;;9.18;4.43;;;;;;;2.67;100.00;99708.63;5043290;28;20046;-56
2024/03/04 02:43:18;;;;;;;8.00;3.95;;;;;;;2.67;100.00;99712.19;5043795;28;20060;-57
2024/03/04 02:45:45;;;;;;;5.85;4.32;;;;;;;2.68;100.00;99715.69;5038477;28;20053;-57
2024/03/04 02:48:13;;;;;;;8.07;4.90;;;;;;;2.70;100.00;99714.25;5042801;28;20056;-59
2024/03/04 02:50:40;;;;;;;4.93;3.13;;;;;;;2.71;100.00;99710.41;5050023;28;20052;-57
2024/03/04 02:53:08;;;;;;;8.80;3.78;;;;;;;2.72;100.00;99713.94;5036413;28;20365;-55
2024/03/04 02:55:37;;;;;;;7.18;3.88;;;;;;;2.73;100.00;99707.34;5040172;28;20747;-57
2024/03/04 02:58:06;;;;;;;6.68;3.03;;;;;;;2.75;100.00;99711.41;5041579;28;20045;-57
2024/03/04 03:00:35;;;;;;;8.13;3.15;;;;;;;2.76;100.00;99717.66;5129820;22;20056;31
2024/03/04 03:03:03;;;;;;;4.07;2.58;;;;;;;2.77;100.00;99719.25;4969525;28;20058;-53
2024/03/04 03:05:31;;;;;;;7.55;3.33;;;;;;;2.79;100.00;99720.56;4971750;28;20551;-55
2024/03/04 03:07:58;;;;;;;9.40;3.85;;;;;;;2.82;100.00;99717.19;4953768;28;20051;-56
2024/03/04 03:10:26;;;;;;;8.40;3.63;;;;;;;2.86;100.00;99722.84;4976976;28;20402;-52
2024/03/04 03:12:54;;;;;;;10.20;6.13;;;;;;;2.88;100.00;99707.72;4970610;28;20049;-54
2024/03/04 03:15:21;;;;;;;8.25;3.92;;;;;;;2.90;100.00;99700.00;4971435;28;20047;-56
2024/03/04 03:17:49;;;;;;;7.32;3.13;;;;;;;2.94;100.00;99700.94;4971509;28;20055;-56
2024/03/04 03:20:16;;;;;;;7.35;4.65;;;;;;;2.98;100.00;99696.47;4971503;28;20046;-56
2024/03/04 03:22:45;;;;;;;10.23;4.18;;;;;;;3.01;100.00;99689.56;4971444;28;20122;-56
2024/03/04 03:25:13;;;;;;;8.93;4.85;;;;;;;3.04;100.00;99692.44;4970868;28;20054;-57
2024/03/04 03:27:41;;;;;;;19.98;6.93;;;;;;;3.08;100.00;99690.69;4970887;28;20043;-54
2024/03/04 03:30:08;;;;;;;19.55;4.60;;;;;;;3.11;100.00;99691.97;4969938;28;20046;-51
2024/03/04 03:32:38;;;;;;;7.40;3.85;;;;;;;3.11;100.00;99691.97;4969874;28;20043;-52
2024/03/04 03:35:06;;;;;;;8.60;3.50;;;;;;;3.11;100.00;99686.50;4970720;28;20048;-53
2024/03/04 03:37:34;;;;;;;8.82;4.03;;;;;;;3.12;100.00;99681.84;4970299;28;20054;-53
2024/03/04 03:40:02;;;;;;;6.05;3.47;;;;;;;3.13;100.00;99675.22;4953639;28;20051;-53
2024/03/04 03:42:33;;;;;;;8.32;3.78;;;;;;;3.14;100.00;99665.91;4970606;28;20065;-53
2024/03/04 03:45:01;;;;;;;7.45;2.90;;;;;;;3.14;100.00;99674.91;4970472;28;20047;-51
2024/03/04 03:47:29;;;;;;;6.28;3.50;;;;;;;3.16;100.00;99671.84;4970529;28;20060;-55
2024/03/04 03:49:57;;;;;;;10.00;3.58;;;;;;;3.15;100.00;99670.25;4953419;28;20527;-51
2024/03/04 03:52:25;;;;;;;4.80;2.60;;;;;;;3.14;100.00;99679.56;4971100;28;20177;-53
2024/03/04 03:54:52;;;;;;;9.88;2.83;;;;;;;3.14;100.00;99679.56;4970447;28;20058;-50
2024/03/04 03:57:20;;;;;;;6.88;3.08;;;;;;;3.13;100.00;99681.50;4970615;28;20792;-49
2024/03/04 03:59:47;;;;;;;6.15;2.78;;;;;;;3.14;100.00;99676.84;4970126;28;20141;-53
2024/03/04 04:02:15;;;;;;;8.07;3.58;;;;;;;3.16;100.00;99674.59;4970564;28;20086;-52
2024/03/04 04:04:42;;;;;;;6.43;2.65;;;;;;;3.18;100.00;99669.63;4970264;28;20416;-55
2024/03/04 04:07:10;;;;;;;9.52;3.75;;;;;;;3.21;100.00;99679.88;4970805;28;20062;-52
2024/03/04 04:09:37;;;;;;;8.60;4.03;;;;;;;3.24;100.00;99684.72;4970822;28;20054;-54
2024/03/04 04:12:06;;;;;;;6.70;4.07;;;;;;;3.27;100.00;99673.94;4970019;28;20054;-53
2024/03/04 04:14:34;;;;;;;8.65;3.20;;;;;;;3.32;100.00;99678.44;4970526;28;20060;-54
2024/03/04 04:17:02;;;;;;;10.65;3.25;;;;;;;3.36;100.00;99676.69;4970513;28;20058;-53
2024/03/04 04:19:29;;;;;;;8.43;2.40;;;;;;;3.41;100.00;99668.31;4970297;28;20047;-52
2024/03/04 04:21:56;;;;;;;8.13;3.03;;;;;;;3.46;100.00;99665.41;4969826;28;20542;-55
2024/03/04 04:24:24;;;;;;;5.22;2.10;;;;;;;3.53;100.00;99666.50;4969597;28;20047;-53
2024/03/04 04:26:51;;;;;;;6.47;2.85;;;;;;;3.60;100.00;99666.03;4970336;28;20043;-51
2024/03/04 04:29:18;;;;;;;7.43;2.33;;;;;;;3.64;100.00;99661.50;4969810;28;20062;-52
2024/03/04 04:31:46;;;;;;;5.40;2.40;;;;;;;3.67;100.00;99661.66;4969979;28;20047;-53
2024/03/04 04:34:13;;;;;;;8.15;2.55;;;;;;;3.71;100.00;99667.25;4969450;28;20046;-53
2024/03/04 04:36:49;;;;;;;8.95;3.22;;;;;;;3.71;100.00;99664.53;4969436;28;20706;-51
2024/03/04 04:39:17;;;;;;;10.77;2.80;;;;;;;3.72;100.00;99646.19;4960360;28;20043;-53
2024/03/04 04:41:45;;;;;;;7.53;3.00;;;;;;;3.72;100.00;99652.47;4964788;28;20050;-51
2024/03/04 04:44:12;;;;;;;7.15;2.20;;;;;;;3.71;100.00;99661.00;4952558;28;20055;-51
2024/03/04 04:46:39;;;;;;;11.13;5.05;;;;;;;3.69;100.00;99666.78;4969633;28;20424;-51
2024/03/04 04:49:07;;;;;;;6.47;2.33;;;;;;;3.68;100.00;99656.97;4969365;28;20061;-54
2024/03/04 04:51:35;;;;;;;5.25;2.42;;;;;;;3.67;100.00;99649.91;4969458;28;20437;-53
2024/03/04 04:54:02;;;;;;;11.88;3.22;;;;;;;3.65;100.00;99661.16;4969927;28;20051;-53
2024/03/04 04:56:29;;;;;;;5.43;2.22;;;;;;;3.65;100.00;99657.66;4969757;28;20069;-53
2024/03/04 04:58:57;;;;;;;6.32;2.22;;;;;;;3.64;100.00;99656.84;4970009;28;20053;-52
2024/03/04 05:01:28;;;;;;;7.60;2.60;;;;;;;3.65;100.00;99654.91;4968683;28;20051;-54
2024/03/04 05:03:57;;;;;;;4.88;2.22;;;;;;;3.66;100.00;99643.63;4968773;28;20046;-55
2024/03/04 05:06:45;;;;;;;8.55;2.47;;;;;;;3.65;100.00;99647.47;4968130;28;20058;-55
2024/03/04 05:09:12;;;;;;;8.43;2.10;;;;;;;3.66;100.00;99653.75;4972815;28;20050;-52
2024/03/04 05:11:39;;;;;;;7.13;2.15;;;;;;;3.67;100.00;99645.25;4969062;28;20061;-52
2024/03/04 05:14:11;;;;;;;5.70;2.55;;;;;;;3.67;100.00;99642.50;4969968;28;20054;-55
2024/03/04 05:16:38;;;;;;;8.80;3.08;;;;;;;3.68;100.00;99640.53;4969174;28;20054;-53
2024/03/04 05:19:05;;;;;;;7.43;3.80;;;;;;;3.69;100.00;99644.91;4969498;28;20047;-55
2024/03/04 05:21:33;;;;;;;7.03;2.45;;;;;;;3.71;100.00;99644.59;4969171;28;20054;-52
2024/03/04 05:24:00;;;;;;;12.75;2.85;;;;;;;3.73;100.00;99643.13;4969331;28;20054;-53
2024/03/04 05:26:27;;;;;;;12.90;4.55;;;;;;;3.76;100.00;99647.94;4969182;28;20509;-52
2024/03/04 05:28:55;;;;;;;13.05;3.15;;;;;;;3.79;100.00;99644.53;4969509;28;20170;-53
2024/03/04 05:31:23;;;;;;;9.25;3.58;;;;;;;3.82;100.00;99641.16;4969091;28;20416;-54
2024/03/04 05:33:51;;;;;;;12.93;4.03;;;;;;;3.84;100.00;99638.88;4969400;28;20055;-52
2024/03/04 05:36:19;;;;;;;13.85;3.88;;;;;;;3.87;100.00;99638.22;4968517;28;20047;-54
2024/03/04 05:38:46;;;;;;;8.10;4.00;;;;;;;3.90;100.00;99637.59;4969039;28;20049;-57
2024/03/04 05:41:14;;;;;;;14.20;4.10;;;;;;;3.93;100.00;99631.47;4968548;28;20509;-55
2024/03/04 05:43:41;;;;;;;13.65;3.70;;;;;;;3.98;100.00;99622.25;4969094;28;20528;-51
2024/03/04 05:46:08;;;;;;;9.85;4.18;;;;;;;4.00;100.00;99615.31;4968408;28;20043;-56
2024/03/04 05:48:36;;;;;;;11.07;4.05;;;;;;;4.05;100.00;99612.38;4969027;28;20055;-53
2024/03/04 05:51:03;;;;;;;12.75;4.18;;;;;;;4.10;100.00;99609.47;4968123;28;20527;-53
2024/03/04 05:53:32;;;;;;;13.38;4.45;;;;;;;4.14;100.00;99621.38;4968461;28;20106;-54
2024/03/04 05:56:03;;;;;;;10.65;4.50;;;;;;;4.17;100.00;99611.69;4968757;28;20061;-51
2024/03/04 05:58:32;;;;;;;12.13;5.00;;;;;;;4.20;100.00;99611.03;4968872;28;20102;-55
2024/03/04 06:01:00;;;;;;;10.02;3.15;;;;;;;4.22;100.00;99603.28;4968359;28;20507;-52
2024/03/04 06:03:27;;;;;;;7.03;3.25;;;;;;;4.26;100.00;99596.81;4970979;28;20504;-54
2024/03/04 06:05:55;;;;;;;7.28;3.05;;;;;;;4.31;100.00;99587.59;4968527;28;20047;-53
2024/03/04 06:08:22;;;;;;;9.25;2.70;;;;;;;4.37;100.00;99586.25;4964773;28;20061;-54
2024/03/04 06:10:49;;;;;;;13.23;3.38;;;;;;;4.43;100.00;99597.84;4972262;28;20047;-53
2024/03/04 06:13:17;;;;;;;11.90;3.78;;;;;;;4.48;100.00;99595.72;4968315;28;20058;-51
2024/03/04 06:15:44;;;;;;;9.40;2.50;;;;;;;4.55;100.00;99597.94;4968223;28;20410;-53
2024/03/04 06:18:12;;;;;;;10.02;2.45;;;;;;;4.61;100.00;99591.91;4969054;28;20501;-55
2024/03/04 06:20:40;;;;;;;5.57;2.45;;;;;;;4.67;100.00;99600.72;4968389;28;20055;-53
2024/03/04 06:23:07;;;;;;;15.75;3.15;;;;;;;4.73;100.00;99596.66;4970364;28;20055;-53
2024/03/04 06:25:34;;;;;;;10.27;2.67;;;;;;;4.76;100.00;99598.75;4971810;28;20046;-55
2024/03/04 06:28:03;;;;;;;13.80;3.17;;;;;;;4.82;100.00;99597.38;4972317;28;20051;-55
2024/03/04 06:30:30;;;;;;;14.27;2.28;;;;;;;4.86;100.00;99592.84;4972120;28;20047;-55
2024/03/04 06:32:58;;;;;;;12.98;2.63;;;;;;;4.90;100.00;99596.50;4972441;28;20043;-56
2024/03/04 06:35:25;;;;;;;16.02;2.92;;;;;;;4.96;100.00;99586.94;4971883;28;20057;-54
2024/03/04 06:37:53;;;;;;;13.50;2.53;;;;;;;5.03;100.00;99589.94;4971806;28;20045;-56
2024/03/04 06:40:20;;;;;;;6.35;2.35;;;;;;;5.08;100.00;99584.28;4971943;28;20505;-53
2024/03/04 06:42:47;;;;;;;15.25;3.55;;;;;;;5.16;100.00;99586.13;4972224;28;20122;-52
2024/03/04 06:45:15;;;;;;;12.43;2.65;;;;;;;5.19;100.00;99579.94;4971416;28;20103;-55
2024/03/04 06:47:42;;;;;;;15.43;5.93;;;;;;;5.22;100.00;99579.28;4971774;28;20078;-54
2024/03/04 06:50:09;;;;;;;17.05;6.00;;;;;;;5.24;100.00;99568.75;4971521;28;20042;-53
2024/03/04 06:52:37;;;;;;;24.48;6.88;;;;;;;5.25;100.00;99562.16;4972837;28;20527;-54
2024/03/04 06:55:04;;;;;;;22.23;6.68;;;;;;;5.28;100.00;99566.97;4971821;28;20047;-54
2024/03/04 06:57:32;;;;;;;26.33;8.93;;;;;;;5.31;100.00;99554.50;4971396;28;20101;-55
2024/03/04 07:00:00;;;;;;;25.10;7.13;;;;;;;5.32;100.00;99565.13;4971363;28;20047;-55
2024/03/04 07:02:28;;;;;;;27.17;7.45;;;;;;;5.35;100.00;99558.97;4971406;28;20519;-52
2024/03/04 07:04:56;;;;;;;31.45;8.77;;;;;;;5.37;100.00;99556.72;4972008;28;20047;-53
2024/03/04 07:07:24;;;;;;;39.90;14.30;;;;;;;5.39;100.00;99543.44;4971863;28;20050;-54
2024/03/04 07:09:52;;;;;;;24.08;7.05;;;;;;;5.41;100.00;99551.31;4974453;28;20073;-56
2024/03/04 07:12:19;;;;;;;34.42;9.13;;;;;;;5.41;100.00;99548.56;4971432;28;20047;-54
2024/03/04 07:14:47;;;;;;;13.15;6.30;;;;;;;5.41;100.00;99549.38;4971825;28;20051;-57
2024/03/04 07:17:14;;;;;;;16.00;4.25;;;;;;;5.45;100.00;99544.03;4971378;28;20501;-53
2024/03/04 07:19:41;;;;;;;15.07;2.72;;;;;;;5.47;100.00;99542.53;4971440;28;20408;-54
2024/03/04 07:22:08;;;;;;;12.63;2.10;;;;;;;5.48;100.00;99549.63;4971603;28;20401;-49
2024/03/04 07:24:36;;;;;;;9.50;1.88;;;;;;;5.49;100.00;99548.47;4971245;28;20047;-54
2024/03/04 07:27:03;;;;;;;14.40;1.67;;;;;;;5.51;100.00;99557.16;4971179;28;20043;-55
2024/03/04 07:29:31;;;;;;;11.10;1.65;;;;;;;5.52;100.00;99558.78;4971350;28;20519;-51
2024/03/04 07:32:09;;;;;;;10.38;2.50;;;;;;;5.52;100.00;99556.03;4970494;28;20046;-51
2024/03/04 07:34:36;;;;;;;6.13;1.58;;;;;;;5.52;100.00;99550.56;4969693;28;20721;-54
2024/03/04 07:37:04;;;;;;;12.10;2.40;;;;;;;5.55;100.00;99549.06;4971898;28;20059;-54
2024/03/04 07:39:31;;;;;;;15.02;3.28;;;;;;;5.58;100.00;99547.59;4971299;28;20051;-57
2024/03/04 07:41:58;;;;;;;15.43;5.22;;;;;;;5.59;100.00;99543.72;4971334;28;20059;-58
2024/03/04 07:44:26;;;;;;;10.27;4.05;;;;;;;5.60;100.00;99550.78;4971353;28;20079;-54
2024/03/04 07:46:53;;;;;;;13.73;4.00;;;;;;;5.63;100.00;99561.09;4970448;28;20054;-55
2024/03/04 07:49:20;;;;;;;17.05;6.10;;;;;;;5.65;100.00;99558.78;4969712;28;20066;-56
2024/03/04 07:51:48;;;;;;;12.32;3.05;;;;;;;5.66;100.00;99560.41;4971933;28;20047;-55
2024/03/04 07:54:16;;;;;;;15.30;4.15;;;;;;;5.69;100.00;99565.22;4976991;28;20536;-54
2024/03/04 07:56:43;;;;;;;9.60;2.50;;;;;;;5.70;100.00;99553.88;4970683;28;20069;-54
2024/03/04 07:59:10;;;;;;;13.30;2.00;;;;;;;5.73;100.00;99566.13;4970232;28;20520;-56
2024/03/04 08:01:46;;;;;;;8.68;2.30;;;;;;;5.75;100.00;99561.91;4970812;28;20058;-55
2024/03/04 08:04:13;;;;;;;12.05;3.50;;;;;;;5.76;100.00;99543.47;4970250;28;20062;-56
2024/03/04 08:06:41;;;;;;;10.60;3.38;;;;;;;5.78;100.00;99546.69;4967332;28;20046;-53
2024/03/04 08:09:08;;;;;;;10.15;2.35;;;;;;;5.78;100.00;99542.00;4968803;28;20039;-59
2024/03/04 08:11:37;;;;;;;15.43;2.38;;;;;;;5.82;100.00;99542.13;4969569;28;20039;-55
2024/03/04 08:14:04;;;;;;;9.07;1.70;;;;;;;5.82;100.00;99547.59;4948764;28;20038;-56
2024/03/04 08:16:31;;;;;;;11.73;1.98;;;;;;;5.83;100.00;99543.69;4969607;28;20605;-53
2024/03/04 08:18:59;;;;;;;9.43;1.55;;;;;;;5.85;100.00;99530.47;4969670;28;20058;-58
2024/03/04 08:21:26;;;;;;;14.18;2.90;;;;;;;5.87;100.00;99530.94;4970132;28;20051;-58
2024/03/04 08:23:53;;;;;;;6.15;1.55;;;;;;;5.88;100.00;99516.03;4964120;28;20055;-57
2024/03/04 08:26:21;;;;;;;10.85;2.35;;;;;;;5.90;100.00;99511.03;4969977;28;20046;-51
2024/03/04 08:28:48;;;;;;;13.07;2.17;;;;;;;5.90;100.00;99517.31;4969774;28;20048;-58
2024/03/04 08:31:19;;;;;;;6.55;1.67;;;;;;;5.92;100.00;99508.72;4969851;28;20051;-58
2024/03/04 08:33:46;;;;;;;8.73;3.30;;;;;;;5.94;100.00;99515.47;4969413;28;20059;-58
2024/03/04 08:36:13;;;;;;;11.43;3.40;;;;;;;5.96;100.00;99515.13;4970097;28;20062;-58
2024/03/04 08:38:41;;;;;;;7.57;1.80;;;;;;;5.98;100.00;99508.13;4969942;28;20047;-57
2024/03/04 08:41:08;;;;;;;12.20;1.63;;;;;;;5.98;100.00;99499.88;4970353;28;20054;-57
2024/03/04 08:43:35;;;;;;;13.00;2.47;;;;;;;6.01;100.00;99507.44;4970651;28;20050;-58
2024/03/04 08:46:04;;;;;;;8.40;2.13;;;;;;;6.06;100.00;99509.19;4969431;28;20194;-55
2024/03/04 08:48:31;;;;;;;10.65;2.50;;;;;;;6.10;100.00;99504.59;4969150;28;20105;-57
2024/03/04 08:50:58;;;;;;;4.97;2.03;;;;;;;6.16;100.00;99510.66;4969830;28;20059;-60
2024/03/04 08:53:26;;;;;;;6.50;1.63;;;;;;;6.23;100.00;99508.09;4970273;28;20776;-58
2024/03/04 08:55:54;;;;;;;12.05;2.65;;;;;;;6.28;100.00;99505.91;4969888;28;20047;-57
2024/03/04 08:58:23;;;;;;;10.93;1.95;;;;;;;6.35;100.00;99500.66;4969631;28;20043;-58
2024/03/04 09:00:51;;;;;;;8.32;1.60;;;;;;;6.39;100.00;99507.03;4969824;28;20043;-58
2024/03/04 09:03:18;;;;;;;11.60;2.10;;;;;;;6.41;100.00;99506.69;4968704;28;20059;-56
2024/03/04 09:05:48;;;;;;;10.23;1.90;;;;;;;6.45;100.00;99508.41;4969599;28;20412;-58
2024/03/04 09:08:15;;;;;;;18.45;3.05;;;;;;;6.49;100.00;99494.75;4969542;28;20512;-58
2024/03/04 09:10:43;;;;;;;12.65;2.33;;;;;;;6.51;100.00;99498.75;4974114;28;20058;-60
2024/03/04 09:13:10;;;;;;;6.43;1.27;;;;;;;6.49;100.00;99490.06;4969364;28;20081;-57
2024/03/04 09:15:38;;;;;;;11.27;1.98;;;;;;;6.48;100.00;99482.97;4969085;28;20531;-57
2024/03/04 09:18:05;;;;;;;9.68;2.17;;;;;;;6.49;100.00;99478.25;4968647;28;20516;-58
2024/03/04 09:20:33;;;;;;;6.07;2.00;;;;;;;6.48;100.00;99482.97;4968618;28;20617;-59
2024/03/04 09:23:01;;;;;;;8.43;1.60;;;;;;;6.47;100.00;99473.13;4957100;28;20126;-59
2024/03/04 09:25:29;;;;;;;31.02;5.47;;;;;;;6.46;100.00;99468.00;4969189;28;20059;-59
2024/03/04 09:27:56;;;;;;;10.30;2.00;;;;;;;6.48;100.00;99471.19;4969148;28;20047;-59
2024/03/04 09:30:25;;;;;;;9.65;1.70;;;;;;;6.51;100.00;99465.75;4968870;28;20062;-59
2024/03/04 09:32:52;;;;;;;7.65;1.40;;;;;;;6.52;100.00;99467.38;4969004;28;20051;-58
2024/03/04 09:35:19;;;;;;;12.38;2.30;;;;;;;6.51;100.00;99471.25;4969508;28;20050;-58
2024/03/04 09:37:47;;;;;;;10.20;2.38;;;;;;;6.55;100.00;99468.63;4969250;28;20065;-58
2024/03/04 09:40:14;;;;;;;10.73;2.10;;;;;;;6.56;100.00;99462.78;4968763;28;20058;-58
2024/03/04 09:42:48;;;;;;;6.80;2.03;;;;;;;6.56;100.00;99476.53;4969385;28;20047;-58
2024/03/04 09:45:21;;;;;;;21.17;2.65;;;;;;;6.57;100.00;99458.06;4968663;28;20046;-58
2024/03/04 09:47:52;;;;;;;12.30;3.20;;;;;;;6.59;100.00;99456.56;4969120;28;20055;-57
2024/03/04 09:50:22;;;;;;;4.95;1.38;;;;;;;6.63;100.00;99454.72;4968720;28;20047;-58
2024/03/04 09:52:50;;;;;;;6.40;1.50;;;;;;;6.63;100.00;99451.97;4969681;28;20082;-58
2024/03/04 09:55:18;;;;;;;7.25;1.65;;;;;;;6.65;100.00;99443.38;4968318;28;20700;-59
2024/03/04 09:57:46;;;;;;;5.45;2.20;;;;;;;6.67;100.00;99441.88;4968227;28;20505;-59
2024/03/04 10:00:14;;;;;;;11.65;2.17;;;;;;;6.72;100.00;99447.09;4968770;28;20059;-58
2024/03/04 10:02:43;;;;;;;7.97;1.70;;;;;;;6.75;100.00;99438.16;4968871;28;20070;-58
2024/03/04 10:05:12;;;;;;;8.90;2.53;;;;;;;6.79;100.00;99423.72;4955625;28;20054;-60
2024/03/04 10:07:39;;;;;;;17.80;2.53;;;;;;;6.79;100.00;99432.78;4968655;28;20074;-59
2024/03/04 10:10:10;;;;;;;13.30;2.75;;;;;;;6.78;100.00;99428.41;4972137;28;20059;-56
2024/03/04 10:12:38;;;;;;;12.63;3.63;;;;;;;6.74;100.00;99424.78;4968507;28;20066;-55
2024/03/04 10:15:09;;;;;;;12.10;2.47;;;;;;;6.70;100.00;99426.63;4960097;28;20048;-58
2024/03/04 10:17:38;;;;;;;11.73;4.07;;;;;;;6.64;100.00;99412.34;4964936;28;20047;-60
2024/03/04 10:20:07;;;;;;;14.05;3.88;;;;;;;6.61;100.00;99415.00;4968766;28;20043;-59
2024/03/04 10:22:39;;;;;;;10.18;3.30;;;;;;;6.59;100.00;99415.31;4968429;28;20432;-58
2024/03/04 10:25:09;;;;;;;16.00;4.15;;;;;;;6.56;100.00;99407.81;4968449;28;20062;-59
2024/03/04 10:27:38;;;;;;;12.95;3.25;;;;;;;6.55;100.00;99408.94;4968394;28;20043;-58
2024/03/04 10:30:16;;;;;;;8.77;2.30;;;;;;;6.54;100.00;99404.56;4968248;28;20051;-59
2024/03/04 10:32:52;;;;;;;12.50;4.07;;;;;;;6.59;100.00;99400.78;4968624;28;20055;-59
2024/03/04 10:35:20;;;;;;;11.32;3.25;;;;;;;6.65;100.00;99393.88;4968143;28;20062;-59
2024/03/04 10:37:49;;;;;;;15.10;2.55;;;;;;;6.65;100.00;99393.88;4968370;28;20051;-58
2024/03/04 10:40:21;;;;;;;9.30;2.20;;;;;;;6.65;100.00;99389.19;4967829;28;20047;-59
2024/03/04 10:42:48;;;;;;;19.83;3.63;;;;;;;6.65;100.00;99388.38;4969352;28;20062;-58
2024/03/04 10:45:16;;;;;;;7.90;1.70;;;;;;;6.61;100.00;99377.28;4967160;28;20042;-59
2024/03/04 10:47:45;;;;;;;6.85;2.08;;;;;;;6.60;100.00;99369.38;4967884;28;20047;-60
2024/03/04 10:50:14;;;;;;;13.35;1.77;;;;;;;6.59;100.00;99365.06;4968381;28;20461;-59
2024/03/04 10:52:43;;;;;;;15.43;2.58;;;;;;;6.60;100.00;99374.88;4969194;28;20058;-60
2024/03/04 10:55:14;;;;;;;6.80;2.15;;;;;;;6.59;100.00;99365.81;4967159;28;20058;-59
2024/03/04 10:57:45;;;;;;;9.05;2.28;;;;;;;6.60;100.00;99369.38;4968082;28;20070;-58
2024/03/04 11:00:19;;;;;;;10.07;1.60;;;;;;;6.60;100.00;99375.69;4968247;28;21181;-59
2024/03/04 11:03:16;;;;;;;13.05;3.08;;;;;;;6.57;100.00;99373.63;4967556;28;20199;-60
2024/03/04 11:05:46;;;;;;;5.57;1.65;;;;;;;6.58;100.00;99350.50;4946442;28;20520;-60
2024/03/04 11:08:23;;;;;;;11.05;2.20;;;;;;;6.62;100.00;99367.06;4968973;28;20124;-58
2024/03/04 11:11:02;;;;;;;4.43;1.50;;;;;;;6.67;100.00;99345.63;4975187;28;20051;-59
2024/03/04 11:13:35;;;;;;;11.73;2.03;;;;;;;6.77;100.00;99349.00;4971420;28;20073;-60
2024/03/04 11:16:27;;;;;;;12.85;1.98;;;;;;;6.87;100.00;99323.72;4971631;28;20377;-60
2024/03/04 11:19:04;;;;;;;16.25;3.22;;;;;;;6.95;100.00;99328.25;4971868;28;20058;-59
2024/03/04 11:21:34;;;;;;;16.55;2.55;;;;;;;7.01;100.00;99330.38;4970951;28;20059;-60
2024/03/04 11:24:06;;;;;;;10.40;2.30;;;;;;;7.06;100.00;99319.09;4971208;28;20055;-60
2024/03/04 11:26:35;;;;;;;10.32;2.58;;;;;;;7.10;100.00;99321.94;4971826;28;20540;-60
2024/03/04 11:29:04;;;;;;;12.02;3.05;;;;;;;7.13;100.00;99310.22;4971271;28;20050;-59
2024/03/04 11:31:31;;;;;;;8.40;2.42;;;;;;;7.17;100.00;99305.59;4970969;28;21216;-59
2024/03/04 11:34:05;;;;;;;12.93;2.15;;;;;;;7.21;100.00;99306.47;4971513;28;20053;-59